createdAt,value
2018-12-30T00:00:41.741Z,88.31
2018-12-30T00:01:41.761Z,88.82
2018-12-30T00:02:41.731Z,88.20
2018-12-30T00:03:41.717Z,88.41
2018-12-30T00:04:41.699Z,88.31
2018-12-30T00:05:41.697Z,88.10
2018-12-30T00:06:41.678Z,87.90
2018-12-30T00:07:41.674Z,88.41
2018-12-30T00:08:41.654Z,88.41
2018-12-30T00:09:41.643Z,88.10
2018-12-30T00:10:41.637Z,87.99
2018-12-30T00:11:41.645Z,88.06
2018-12-30T00:12:41.614Z,87.17
2018-12-30T00:13:41.601Z,87.54
2018-12-30T00:14:41.593Z,88.41
2018-12-30T00:15:41.574Z,88.51
2018-12-30T00:16:41.574Z,87.03
2018-12-30T00:17:41.578Z,86.93
2018-12-30T00:18:41.548Z,87.59
2018-12-30T00:19:42.336Z,87.59
2018-12-30T00:20:41.534Z,87.65
2018-12-30T00:21:41.509Z,87.99
2018-12-30T00:22:41.502Z,87.59
2018-12-30T00:23:41.598Z,87.79
2018-12-30T00:24:41.476Z,87.07
2018-12-30T00:25:41.465Z,87.38
2018-12-30T00:26:41.456Z,85.79
2018-12-30T00:27:41.451Z,84.87
2018-12-30T00:28:41.453Z,84.87
2018-12-30T00:29:41.441Z,84.77
2018-12-30T00:30:41.420Z,84.66
2018-12-30T00:31:41.401Z,85.17
2018-12-30T00:32:41.385Z,84.45
2018-12-30T00:33:41.394Z,85.17
2018-12-30T00:34:41.365Z,84.97
2018-12-30T00:35:41.369Z,85.59
2018-12-30T00:36:41.342Z,85.89
2018-12-30T00:37:41.333Z,85.69
2018-12-30T00:38:41.349Z,85.28
2018-12-30T00:39:41.313Z,84.97
2018-12-30T00:40:41.297Z,84.77
2018-12-30T00:41:41.309Z,85.38
2018-12-30T00:42:41.276Z,85.89
2018-12-30T00:43:41.269Z,85.89
2018-12-30T00:44:41.265Z,86.41
2018-12-30T00:45:41.244Z,86.31
2018-12-30T00:46:41.237Z,85.52
2018-12-30T00:47:41.230Z,85.79
2018-12-30T00:48:41.213Z,86.35
2018-12-30T00:49:41.228Z,85.42
2018-12-30T00:50:41.193Z,85.28
2018-12-30T00:51:41.172Z,85.83
2018-12-30T00:52:41.181Z,86.45
2018-12-30T00:53:41.157Z,87.48
2018-12-30T00:54:41.145Z,87.59
2018-12-30T00:55:41.129Z,88.41
2018-12-30T00:56:41.122Z,88.41
2018-12-30T00:57:41.128Z,88.62
2018-12-30T00:58:41.120Z,89.65
2018-12-30T00:59:41.114Z,89.44
2018-12-30T01:00:41.081Z,89.28
2018-12-30T01:01:41.066Z,88.76
2018-12-30T01:02:41.054Z,88.76
2018-12-30T01:03:41.056Z,89.75
2018-12-30T01:04:41.061Z,89.79
2018-12-30T01:05:41.018Z,89.69
2018-12-30T01:06:41.010Z,89.38
2018-12-30T01:07:40.997Z,89.17
2018-12-30T01:08:40.987Z,90.00
2018-12-30T01:09:41.000Z,90.00
2018-12-30T01:10:40.973Z,90.00
2018-12-30T01:11:40.954Z,89.38
2018-12-30T01:12:40.941Z,90.00
2018-12-30T01:13:40.932Z,89.28
2018-12-30T01:14:40.921Z,89.38
2018-12-30T01:15:40.925Z,89.48
2018-12-30T01:16:40.899Z,89.38
2018-12-30T01:17:40.888Z,89.28
2018-12-30T01:18:40.877Z,89.48
2018-12-30T01:19:40.868Z,89.17
2018-12-30T01:20:40.861Z,89.07
2018-12-30T01:21:40.858Z,88.76
2018-12-30T01:22:40.837Z,88.76
2018-12-30T01:23:40.821Z,88.86
2018-12-30T01:24:40.808Z,88.45
2018-12-30T01:25:40.801Z,88.04
2018-12-30T01:26:40.787Z,87.83
2018-12-30T01:27:40.828Z,87.01
2018-12-30T01:28:40.766Z,87.42
2018-12-30T01:29:40.753Z,87.52
2018-12-30T01:30:40.745Z,86.55
2018-12-30T01:31:40.728Z,86.24
2018-12-30T01:32:40.728Z,85.83
2018-12-30T01:33:40.706Z,85.83
2018-12-30T01:34:40.700Z,85.63
2018-12-30T01:35:40.692Z,84.91
2018-12-30T01:36:40.677Z,85.01
2018-12-30T01:37:40.664Z,85.11
2018-12-30T01:38:40.660Z,85.01
2018-12-30T01:39:40.640Z,85.01
2018-12-30T01:40:40.633Z,85.52
2018-12-30T01:41:40.620Z,85.31
2018-12-30T01:42:40.607Z,85.31
2018-12-30T01:43:40.620Z,85.05
2018-12-30T01:44:40.584Z,85.01
2018-12-30T01:45:40.572Z,85.01
2018-12-30T01:46:40.561Z,84.70
2018-12-30T01:47:40.555Z,84.80
2018-12-30T01:48:40.540Z,85.01
2018-12-30T01:49:40.544Z,84.49
2018-12-30T01:50:40.517Z,84.49
2018-12-30T01:51:40.504Z,85.22
2018-12-30T01:52:40.496Z,85.01
2018-12-30T01:53:40.490Z,85.01
2018-12-30T01:54:40.472Z,85.01
2018-12-30T01:55:40.470Z,85.01
2018-12-30T01:56:40.452Z,85.11
2018-12-30T01:57:40.441Z,85.22
2018-12-30T01:58:40.428Z,84.91
2018-12-30T01:59:40.419Z,85.01
2018-12-30T02:00:40.420Z,84.53
2018-12-30T02:01:40.403Z,85.22
2018-12-30T02:02:40.384Z,84.80
2018-12-30T02:03:40.376Z,84.80
2018-12-30T02:04:40.359Z,85.15
2018-12-30T02:05:40.364Z,85.01
2018-12-30T02:06:40.373Z,85.05
2018-12-30T02:07:40.339Z,84.94
2018-12-30T02:08:40.316Z,85.36
2018-12-30T02:09:40.304Z,84.74
2018-12-30T02:10:40.308Z,84.84
2018-12-30T02:11:40.288Z,85.15
2018-12-30T02:12:40.282Z,84.74
2018-12-30T02:13:40.264Z,85.15
2018-12-30T02:14:40.248Z,84.94
2018-12-30T02:15:40.244Z,84.94
2018-12-30T02:16:40.239Z,84.91
2018-12-30T02:17:40.232Z,85.15
2018-12-30T02:18:40.204Z,84.84
2018-12-30T02:19:40.191Z,84.94
2018-12-30T02:20:40.184Z,85.36
2018-12-30T02:21:41.192Z,85.36
2018-12-30T02:22:40.166Z,84.91
2018-12-30T02:23:40.164Z,84.84
2018-12-30T02:24:40.147Z,85.05
2018-12-30T02:25:40.130Z,84.94
2018-12-30T02:26:40.120Z,84.70
2018-12-30T02:27:40.103Z,85.25
2018-12-30T02:28:40.105Z,85.57
2018-12-30T02:29:40.108Z,85.25
2018-12-30T02:30:40.075Z,85.67
2018-12-30T02:31:40.063Z,85.71
2018-12-30T02:32:40.059Z,85.46
2018-12-30T02:33:40.055Z,85.57
2018-12-30T02:34:40.027Z,85.36
2018-12-30T02:35:40.030Z,85.15
2018-12-30T02:36:40.008Z,84.74
2018-12-30T02:37:39.992Z,85.46
2018-12-30T02:38:39.988Z,85.36
2018-12-30T02:39:39.979Z,85.36
2018-12-30T02:40:39.979Z,85.46
2018-12-30T02:41:39.955Z,85.25
2018-12-30T02:42:39.948Z,85.15
2018-12-30T02:43:39.928Z,85.25
2018-12-30T02:44:39.920Z,84.12
2018-12-30T02:45:39.906Z,84.64
2018-12-30T02:46:39.905Z,84.39
2018-12-30T02:47:39.888Z,85.15
2018-12-30T02:48:39.871Z,84.94
2018-12-30T02:49:39.859Z,85.05
2018-12-30T02:50:39.849Z,85.25
2018-12-30T02:51:39.861Z,85.25
2018-12-30T02:52:39.836Z,84.88
2018-12-30T02:53:39.817Z,85.15
2018-12-30T02:54:39.804Z,84.74
2018-12-30T02:55:39.792Z,84.94
2018-12-30T02:56:39.788Z,84.67
2018-12-30T02:57:39.794Z,84.22
2018-12-30T02:58:39.775Z,84.53
2018-12-30T02:59:39.753Z,84.53
2018-12-30T03:00:39.735Z,83.40
2018-12-30T03:01:39.725Z,83.61
2018-12-30T03:02:39.719Z,84.64
2018-12-30T03:03:39.727Z,83.61
2018-12-30T03:04:39.693Z,83.50
2018-12-30T03:05:39.687Z,83.61
2018-12-30T03:06:39.671Z,83.64
2018-12-30T03:07:39.664Z,83.61
2018-12-30T03:08:39.649Z,83.61
2018-12-30T03:09:39.647Z,83.54
2018-12-30T03:10:39.631Z,83.44
2018-12-30T03:11:39.623Z,83.44
2018-12-30T03:12:39.608Z,83.64
2018-12-30T03:13:39.592Z,83.40
2018-12-30T03:14:39.591Z,83.40
2018-12-30T03:15:39.572Z,83.40
2018-12-30T03:16:39.562Z,83.29
2018-12-30T03:17:39.551Z,83.13
2018-12-30T03:18:39.563Z,83.13
2018-12-30T03:19:39.539Z,82.89
2018-12-30T03:20:39.516Z,83.33
2018-12-30T03:21:39.504Z,83.33
2018-12-30T03:22:39.495Z,83.23
2018-12-30T03:23:39.479Z,82.37
2018-12-30T03:24:39.485Z,82.30
2018-12-30T03:25:39.472Z,82.92
2018-12-30T03:26:39.449Z,82.78
2018-12-30T03:27:39.436Z,82.89
2018-12-30T03:28:39.424Z,83.33
2018-12-30T03:29:39.431Z,82.82
2018-12-30T03:30:39.415Z,82.61
2018-12-30T03:31:39.396Z,83.44
2018-12-30T03:32:39.382Z,82.20
2018-12-30T03:33:39.368Z,82.92
2018-12-30T03:34:39.360Z,83.44
2018-12-30T03:35:39.373Z,83.23
2018-12-30T03:36:39.348Z,83.33
2018-12-30T03:37:39.328Z,82.92
2018-12-30T03:38:39.325Z,83.54
2018-12-30T03:39:39.304Z,83.64
2018-12-30T03:40:39.296Z,83.85
2018-12-30T03:41:39.292Z,83.64
2018-12-30T03:42:39.268Z,83.75
2018-12-30T03:43:39.260Z,83.33
2018-12-30T03:44:39.253Z,83.54
2018-12-30T03:45:39.240Z,83.03
2018-12-30T03:46:39.248Z,83.33
2018-12-30T03:47:39.211Z,83.64
2018-12-30T03:48:39.204Z,82.71
2018-12-30T03:49:39.200Z,83.33
2018-12-30T03:50:39.180Z,83.64
2018-12-30T03:51:39.169Z,84.06
2018-12-30T03:52:39.171Z,84.57
2018-12-30T03:53:39.156Z,83.89
2018-12-30T03:54:39.136Z,84.88
2018-12-30T03:55:39.125Z,83.54
2018-12-30T03:56:39.116Z,84.16
2018-12-30T03:57:39.123Z,83.85
2018-12-30T03:58:39.139Z,83.85
2018-12-30T03:59:39.084Z,83.54
2018-12-30T04:00:39.083Z,84.16
2018-12-30T04:01:39.060Z,84.81
2018-12-30T04:02:39.048Z,84.72
2018-12-30T04:03:39.052Z,84.81
2018-12-30T04:04:39.024Z,84.47
2018-12-30T04:05:39.017Z,84.27
2018-12-30T04:06:39.009Z,84.61
2018-12-30T04:07:39.004Z,84.67
2018-12-30T04:08:38.980Z,84.30
2018-12-30T04:09:38.980Z,83.85
2018-12-30T04:10:38.956Z,83.68
2018-12-30T04:11:38.953Z,83.64
2018-12-30T04:12:38.936Z,84.72
2018-12-30T04:13:38.940Z,84.92
2018-12-30T04:14:38.920Z,84.57
2018-12-30T04:15:38.916Z,85.09
2018-12-30T04:16:38.896Z,85.13
2018-12-30T04:17:38.880Z,85.33
2018-12-30T04:18:38.869Z,84.72
2018-12-30T04:19:38.855Z,84.81
2018-12-30T04:20:38.860Z,85.13
2018-12-30T04:21:38.941Z,85.33
2018-12-30T04:22:38.824Z,84.92
2018-12-30T04:23:38.812Z,85.02
2018-12-30T04:24:38.806Z,85.02
2018-12-30T04:25:38.793Z,85.02
2018-12-30T04:26:38.788Z,84.92
2018-12-30T04:27:38.806Z,84.92
2018-12-30T04:28:38.851Z,85.09
2018-12-30T04:29:38.749Z,85.02
2018-12-30T04:30:38.740Z,85.13
2018-12-30T04:31:38.732Z,85.30
2018-12-30T04:32:38.712Z,84.78
2018-12-30T04:33:38.702Z,85.33
2018-12-30T04:34:38.710Z,85.02
2018-12-30T04:35:38.686Z,85.33
2018-12-30T04:36:38.673Z,84.67
2018-12-30T04:37:38.656Z,84.78
2018-12-30T04:38:38.672Z,85.23
2018-12-30T04:39:38.638Z,85.13
2018-12-30T04:40:38.628Z,85.13
2018-12-30T04:41:38.614Z,84.81
2018-12-30T04:42:38.604Z,85.30
2018-12-30T04:43:38.594Z,85.13
2018-12-30T04:44:45.635Z,85.02
2018-12-30T04:45:38.568Z,85.02
2018-12-30T04:46:38.562Z,85.02
2018-12-30T04:47:38.549Z,85.02
2018-12-30T04:48:38.540Z,85.02
2018-12-30T04:49:38.528Z,85.02
2018-12-30T04:50:39.839Z,85.13
2018-12-30T04:51:38.501Z,85.02
2018-12-30T04:52:38.496Z,85.02
2018-12-30T04:53:38.489Z,85.02
2018-12-30T04:54:38.488Z,85.09
2018-12-30T04:55:38.472Z,85.23
2018-12-30T04:56:38.448Z,85.33
2018-12-30T04:57:38.438Z,85.13
2018-12-30T04:58:38.428Z,85.23
2018-12-30T04:59:38.421Z,85.23
2018-12-30T05:00:38.408Z,85.44
2018-12-30T05:01:38.409Z,85.23
2018-12-30T05:02:38.388Z,85.75
2018-12-30T05:03:38.368Z,85.44
2018-12-30T05:04:38.358Z,85.54
2018-12-30T05:05:38.348Z,84.81
2018-12-30T05:06:38.337Z,85.75
2018-12-30T05:07:38.346Z,85.54
2018-12-30T05:08:38.316Z,85.75
2018-12-30T05:09:38.304Z,85.64
2018-12-30T05:10:38.438Z,85.23
2018-12-30T05:11:38.284Z,85.39
2018-12-30T05:12:38.281Z,85.33
2018-12-30T05:13:38.280Z,85.64
2018-12-30T05:14:38.248Z,85.64
2018-12-30T05:15:38.237Z,85.85
2018-12-30T05:16:38.224Z,85.44
2018-12-30T05:17:38.216Z,85.44
2018-12-30T05:18:38.216Z,85.64
2018-12-30T05:19:38.229Z,85.85
2018-12-30T05:20:38.188Z,86.16
2018-12-30T05:21:38.176Z,86.05
2018-12-30T05:22:38.189Z,86.16
2018-12-30T05:23:38.148Z,86.16
2018-12-30T05:24:38.140Z,86.26
2018-12-30T05:25:38.154Z,86.26
2018-12-30T05:26:38.116Z,86.05
2018-12-30T05:27:38.112Z,86.05
2018-12-30T05:28:38.133Z,86.16
2018-12-30T05:29:38.097Z,85.85
2018-12-30T05:30:38.067Z,86.68
2018-12-30T05:31:38.111Z,86.57
2018-12-30T05:32:38.107Z,86.47
2018-12-30T05:33:38.054Z,86.88
2018-12-30T05:34:38.025Z,86.78
2018-12-30T05:35:38.016Z,86.98
2018-12-30T05:36:38.001Z,87.40
2018-12-30T05:37:38.011Z,87.50
2018-12-30T05:38:37.988Z,87.19
2018-12-30T05:39:38.011Z,87.81
2018-12-30T05:40:37.999Z,87.81
2018-12-30T05:41:37.949Z,87.60
2018-12-30T05:42:37.937Z,87.50
2018-12-30T05:43:38.012Z,87.81
2018-12-30T05:44:37.928Z,88.22
2018-12-30T05:45:37.912Z,88.22
2018-12-30T05:46:37.892Z,88.12
2018-12-30T05:47:37.887Z,88.43
2018-12-30T05:48:37.936Z,88.43
2018-12-30T05:49:37.872Z,88.89
2018-12-30T05:50:37.846Z,88.78
2018-12-30T05:51:37.841Z,88.47
2018-12-30T05:52:41.775Z,89.19
2018-12-30T05:53:37.850Z,88.84
2018-12-30T05:54:37.821Z,89.77
2018-12-30T05:55:37.798Z,89.46
2018-12-30T05:56:37.848Z,89.46
2018-12-30T05:57:37.769Z,89.15
2018-12-30T05:58:37.759Z,89.81
2018-12-30T05:59:37.744Z,89.67
2018-12-30T06:00:37.821Z,90.33
2018-12-30T06:01:37.730Z,89.50
2018-12-30T06:02:37.772Z,90.33
2018-12-30T06:03:37.747Z,90.22
2018-12-30T06:04:37.687Z,89.77
2018-12-30T06:05:37.684Z,90.19
2018-12-30T06:06:37.667Z,90.02
2018-12-30T06:07:37.664Z,90.02
2018-12-30T06:08:37.660Z,90.12
2018-12-30T06:09:37.631Z,90.08
2018-12-30T06:10:37.627Z,90.08
2018-12-30T06:11:37.613Z,90.39
2018-12-30T06:12:37.650Z,89.71
2018-12-30T06:13:37.606Z,89.98
2018-12-30T06:14:37.587Z,90.19
2018-12-30T06:15:37.569Z,90.02
2018-12-30T06:16:37.562Z,90.19
2018-12-30T06:17:37.583Z,90.28
2018-12-30T06:18:37.534Z,90.19
2018-12-30T06:19:37.591Z,90.02
2018-12-30T06:20:37.511Z,90.19
2018-12-30T06:21:37.502Z,89.98
2018-12-30T06:22:37.510Z,89.98
2018-12-30T06:23:37.479Z,90.08
2018-12-30T06:24:37.485Z,90.02
2018-12-30T06:25:37.483Z,90.19
2018-12-30T06:26:37.450Z,90.28
2018-12-30T06:27:37.437Z,89.98
2018-12-30T06:28:37.421Z,89.98
2018-12-30T06:29:37.417Z,90.08
2018-12-30T06:30:37.405Z,90.22
2018-12-30T06:31:37.403Z,90.33
2018-12-30T06:32:37.375Z,89.77
2018-12-30T06:33:37.368Z,90.22
2018-12-30T06:34:37.410Z,90.02
2018-12-30T06:35:37.347Z,90.08
2018-12-30T06:36:37.349Z,89.98
2018-12-30T06:37:37.323Z,90.12
2018-12-30T06:38:37.314Z,89.98
2018-12-30T06:39:37.314Z,90.28
2018-12-30T06:40:37.300Z,90.19
2018-12-30T06:41:37.298Z,89.98
2018-12-30T06:42:37.282Z,90.08
2018-12-30T06:43:37.265Z,89.46
2018-12-30T06:44:37.287Z,90.08
2018-12-30T06:45:37.230Z,90.39
2018-12-30T06:46:37.230Z,89.87
2018-12-30T06:47:37.214Z,90.08
2018-12-30T06:48:37.242Z,90.39
2018-12-30T06:49:37.214Z,90.28
2018-12-30T06:50:37.178Z,89.98
2018-12-30T06:51:37.240Z,90.64
2018-12-30T06:52:37.159Z,91.16
2018-12-30T06:53:37.147Z,90.59
2018-12-30T06:54:37.154Z,90.43
2018-12-30T06:55:37.129Z,90.80
2018-12-30T06:56:37.106Z,90.70
2018-12-30T06:57:37.102Z,91.52
2018-12-30T06:58:37.087Z,91.11
2018-12-30T06:59:37.103Z,91.11
2018-12-30T07:00:37.083Z,91.01
2018-12-30T07:01:37.073Z,91.11
2018-12-30T07:02:37.046Z,91.11
2018-12-30T07:03:37.035Z,90.70
2018-12-30T07:04:37.023Z,90.59
2018-12-30T07:05:37.047Z,90.91
2018-12-30T07:06:38.391Z,91.46
2018-12-30T07:07:36.989Z,91.05
2018-12-30T07:08:37.045Z,91.22
2018-12-30T07:09:36.970Z,91.01
2018-12-30T07:10:36.974Z,91.32
2018-12-30T07:11:36.991Z,91.46
2018-12-30T07:12:36.966Z,91.11
2018-12-30T07:13:36.923Z,91.46
2018-12-30T07:14:36.926Z,91.32
2018-12-30T07:15:36.907Z,91.67
2018-12-30T07:16:36.886Z,91.46
2018-12-30T07:17:36.882Z,91.46
2018-12-30T07:18:36.892Z,91.46
2018-12-30T07:19:36.859Z,91.98
2018-12-30T07:20:36.899Z,91.77
2018-12-30T07:21:36.871Z,92.29
2018-12-30T07:22:36.824Z,92.29
2018-12-30T07:23:36.858Z,92.60
2018-12-30T07:24:36.851Z,92.80
2018-12-30T07:25:36.807Z,91.88
2018-12-30T07:26:36.795Z,91.88
2018-12-30T07:27:36.767Z,91.88
2018-12-30T07:28:36.759Z,91.88
2018-12-30T07:29:36.743Z,91.73
2018-12-30T07:30:36.735Z,91.46
2018-12-30T07:31:36.753Z,92.29
2018-12-30T07:32:36.743Z,91.88
2018-12-30T07:33:36.696Z,91.88
2018-12-30T07:34:36.730Z,91.56
2018-12-30T07:35:36.679Z,92.25
2018-12-30T07:36:36.667Z,92.29
2018-12-30T07:37:36.670Z,91.98
2018-12-30T07:38:36.642Z,92.60
2018-12-30T07:39:36.681Z,92.60
2018-12-30T07:40:36.631Z,91.98
2018-12-30T07:41:36.623Z,92.70
2018-12-30T07:42:36.635Z,92.60
2018-12-30T07:43:36.591Z,92.29
2018-12-30T07:44:36.583Z,92.08
2018-12-30T07:45:36.602Z,92.50
2018-12-30T07:46:36.551Z,92.50
2018-12-30T07:47:36.562Z,93.12
2018-12-30T07:48:36.535Z,92.50
2018-12-30T07:49:36.524Z,92.19
2018-12-30T07:50:36.512Z,92.40
2018-12-30T07:51:36.499Z,92.40
2018-12-30T07:52:36.499Z,92.29
2018-12-30T07:53:36.500Z,92.50
2018-12-30T07:54:36.477Z,92.60
2018-12-30T07:55:36.457Z,92.80
2018-12-30T07:56:36.466Z,92.50
2018-12-30T07:57:36.451Z,92.70
2018-12-30T07:58:36.420Z,92.70
2018-12-30T07:59:36.424Z,92.80
2018-12-30T08:00:36.400Z,92.85
2018-12-30T08:01:36.387Z,92.64
2018-12-30T08:02:36.375Z,93.05
2018-12-30T08:03:36.366Z,93.37
2018-12-30T08:04:36.398Z,93.26
2018-12-30T08:05:36.369Z,92.95
2018-12-30T08:06:36.335Z,92.95
2018-12-30T08:07:36.346Z,93.37
2018-12-30T08:08:36.351Z,93.53
2018-12-30T08:09:36.310Z,93.68
2018-12-30T08:10:36.392Z,93.98
2018-12-30T08:11:36.282Z,94.15
2018-12-30T08:12:36.263Z,93.43
2018-12-30T08:13:36.269Z,93.68
2018-12-30T08:14:36.246Z,93.84
2018-12-30T08:15:36.398Z,94.15
2018-12-30T08:16:36.279Z,93.26
2018-12-30T08:17:36.230Z,93.57
2018-12-30T08:18:36.199Z,93.32
2018-12-30T08:19:36.191Z,93.47
2018-12-30T08:20:36.335Z,93.57
2018-12-30T08:21:36.167Z,93.16
2018-12-30T08:22:36.182Z,93.68
2018-12-30T08:23:36.159Z,94.09
2018-12-30T08:24:36.139Z,93.84
2018-12-30T08:25:36.123Z,93.68
2018-12-30T08:26:36.131Z,93.78
2018-12-30T08:27:36.129Z,94.04
2018-12-30T08:28:36.090Z,93.73
2018-12-30T08:29:36.099Z,93.94
2018-12-30T08:30:36.074Z,93.73
2018-12-30T08:31:36.054Z,94.09
2018-12-30T08:32:36.042Z,93.63
2018-12-30T08:33:36.042Z,93.94
2018-12-30T08:34:36.026Z,93.53
2018-12-30T08:35:36.035Z,93.43
2018-12-30T08:36:36.469Z,93.98
2018-12-30T08:37:35.994Z,94.04
2018-12-30T08:38:36.005Z,94.09
2018-12-30T08:39:35.963Z,94.81
2018-12-30T08:40:35.998Z,94.92
2018-12-30T08:41:35.982Z,94.77
2018-12-30T08:42:35.963Z,95.22
2018-12-30T08:43:35.922Z,94.40
2018-12-30T08:44:35.930Z,94.46
2018-12-30T08:45:35.895Z,94.77
2018-12-30T08:46:35.886Z,94.81
2018-12-30T08:47:35.875Z,94.92
2018-12-30T08:48:35.866Z,94.71
2018-12-30T08:49:35.854Z,95.28
2018-12-30T08:50:35.862Z,95.12
2018-12-30T08:51:35.831Z,94.92
2018-12-30T08:52:35.855Z,94.97
2018-12-30T08:53:35.822Z,95.07
2018-12-30T08:54:35.794Z,95.28
2018-12-30T08:55:35.802Z,94.87
2018-12-30T08:56:35.787Z,95.39
2018-12-30T08:57:35.778Z,95.18
2018-12-30T08:58:35.876Z,95.59
2018-12-30T08:59:35.915Z,95.90
2018-12-30T09:00:35.736Z,96.52
2018-12-30T09:01:35.746Z,96.77
2018-12-30T09:02:35.722Z,96.77
2018-12-30T09:03:35.695Z,97.14
2018-12-30T09:04:35.839Z,97.60
2018-12-30T09:05:35.675Z,98.11
2018-12-30T09:06:35.876Z,98.43
2018-12-30T09:07:35.748Z,98.53
2018-12-30T09:08:35.642Z,99.15
2018-12-30T09:09:35.667Z,99.35
2018-12-30T09:10:35.648Z,99.35
2018-12-30T09:11:35.619Z,98.94
2018-12-30T09:12:35.614Z,99.46
2018-12-30T09:13:35.690Z,99.77
2018-12-30T09:14:35.571Z,99.46
2018-12-30T09:15:35.570Z,99.66
2018-12-30T09:16:35.559Z,99.15
2018-12-30T09:17:35.539Z,99.46
2018-12-30T09:18:35.580Z,98.84
2018-12-30T09:19:35.522Z,98.58
2018-12-30T09:20:35.514Z,99.41
2018-12-30T09:21:35.539Z,99.10
2018-12-30T09:22:35.511Z,98.69
2018-12-30T09:23:37.480Z,99.00
2018-12-30T09:24:35.507Z,98.79
2018-12-30T09:25:35.452Z,98.79
2018-12-30T09:26:35.487Z,98.49
2018-12-30T09:27:35.439Z,98.90
2018-12-30T09:28:35.420Z,98.79
2018-12-30T09:29:35.428Z,98.58
2018-12-30T09:30:35.399Z,98.28
2018-12-30T09:31:35.407Z,98.49
2018-12-30T09:32:35.371Z,98.18
2018-12-30T09:33:35.363Z,98.49
2018-12-30T09:34:35.467Z,98.18
2018-12-30T09:35:35.363Z,98.18
2018-12-30T09:36:35.330Z,98.28
2018-12-30T09:37:35.367Z,98.07
2018-12-30T09:38:35.315Z,98.49
2018-12-30T09:39:35.299Z,97.92
2018-12-30T09:40:35.286Z,97.92
2018-12-30T09:41:35.330Z,98.02
2018-12-30T09:42:35.267Z,97.51
2018-12-30T09:43:35.253Z,97.55
2018-12-30T09:44:35.246Z,97.41
2018-12-30T09:45:35.230Z,97.72
2018-12-30T09:46:35.220Z,97.72
2018-12-30T09:47:35.311Z,97.61
2018-12-30T09:48:35.216Z,97.51
2018-12-30T09:49:35.187Z,97.61
2018-12-30T09:50:35.174Z,97.92
2018-12-30T09:51:35.235Z,97.20
2018-12-30T09:52:35.166Z,97.20
2018-12-30T09:53:35.153Z,96.89
2018-12-30T09:54:35.130Z,97.09
2018-12-30T09:55:35.122Z,96.99
2018-12-30T09:56:35.138Z,96.99
2018-12-30T09:57:35.099Z,96.58
2018-12-30T09:58:35.122Z,96.48
2018-12-30T09:59:35.090Z,96.58
2018-12-30T10:00:35.063Z,96.27
2018-12-30T10:01:35.062Z,96.23
2018-12-30T10:02:35.053Z,96.48
2018-12-30T10:03:35.079Z,96.23
2018-12-30T10:04:35.027Z,96.33
2018-12-30T10:05:35.017Z,96.99
2018-12-30T10:06:35.005Z,96.33
2018-12-30T10:07:34.995Z,96.17
2018-12-30T10:08:35.641Z,96.12
2018-12-30T10:09:34.982Z,96.44
2018-12-30T10:10:42.487Z,95.50
2018-12-30T10:11:34.940Z,95.92
2018-12-30T10:12:34.925Z,95.81
2018-12-30T10:13:34.930Z,95.50
2018-12-30T10:14:34.902Z,96.12
2018-12-30T10:15:34.915Z,96.64
2018-12-30T10:16:34.881Z,95.71
2018-12-30T10:17:34.915Z,95.61
2018-12-30T10:18:34.861Z,95.61
2018-12-30T10:19:34.849Z,96.23
2018-12-30T10:20:34.849Z,96.33
2018-12-30T10:21:34.843Z,95.92
2018-12-30T10:22:34.814Z,96.64
2018-12-30T10:23:34.803Z,96.64
2018-12-30T10:24:34.792Z,96.44
2018-12-30T10:25:34.812Z,96.84
2018-12-30T10:26:34.771Z,97.16
2018-12-30T10:27:34.808Z,97.51
2018-12-30T10:28:34.749Z,98.02
2018-12-30T10:29:34.739Z,97.47
2018-12-30T10:30:34.729Z,97.51
2018-12-30T10:31:34.716Z,97.30
2018-12-30T10:32:34.756Z,97.61
2018-12-30T10:33:34.694Z,97.61
2018-12-30T10:34:34.681Z,97.30
2018-12-30T10:35:34.669Z,97.88
2018-12-30T10:36:34.660Z,97.51
2018-12-30T10:37:34.648Z,97.20
2018-12-30T10:38:34.667Z,97.20
2018-12-30T10:39:34.625Z,96.79
2018-12-30T10:40:34.613Z,97.30
2018-12-30T10:41:34.604Z,96.89
2018-12-30T10:42:34.595Z,96.99
2018-12-30T10:43:34.583Z,96.48
2018-12-30T10:44:34.615Z,96.27
2018-12-30T10:45:34.563Z,96.58
2018-12-30T10:46:34.547Z,96.37
2018-12-30T10:47:34.539Z,96.48
2018-12-30T10:48:36.217Z,96.64
2018-12-30T10:49:34.514Z,96.48
2018-12-30T10:50:34.539Z,96.33
2018-12-30T10:51:34.494Z,96.44
2018-12-30T10:52:34.481Z,96.33
2018-12-30T10:53:34.471Z,96.23
2018-12-30T10:54:34.459Z,95.71
2018-12-30T10:55:34.478Z,95.09
2018-12-30T10:56:34.460Z,94.99
2018-12-30T10:57:34.430Z,95.20
2018-12-30T10:58:34.417Z,95.36
2018-12-30T10:59:34.404Z,94.99
2018-12-30T11:00:34.404Z,95.09
2018-12-30T11:01:34.407Z,95.36
2018-12-30T11:02:34.380Z,95.09
2018-12-30T11:03:34.360Z,94.99
2018-12-30T11:04:34.358Z,95.50
2018-12-30T11:05:34.335Z,95.09
2018-12-30T11:06:34.331Z,95.20
2018-12-30T11:07:34.335Z,95.09
2018-12-30T11:08:34.328Z,95.61
2018-12-30T11:09:34.295Z,95.50
2018-12-30T11:10:34.313Z,95.09
2018-12-30T11:11:34.270Z,95.81
2018-12-30T11:12:34.259Z,94.78
2018-12-30T11:13:34.286Z,95.20
2018-12-30T11:14:34.252Z,95.50
2018-12-30T11:15:34.223Z,94.84
2018-12-30T11:16:34.215Z,94.68
2018-12-30T11:17:34.203Z,94.68
2018-12-30T11:18:34.191Z,95.09
2018-12-30T11:19:34.195Z,94.99
2018-12-30T11:20:34.187Z,94.78
2018-12-30T11:21:34.159Z,94.89
2018-12-30T11:22:34.151Z,94.43
2018-12-30T11:23:34.135Z,95.05
2018-12-30T11:24:34.123Z,95.09
2018-12-30T11:25:34.136Z,95.05
2018-12-30T11:26:34.129Z,94.53
2018-12-30T11:27:34.091Z,94.32
2018-12-30T11:28:34.087Z,94.43
2018-12-30T11:29:34.067Z,93.91
2018-12-30T11:30:34.058Z,94.57
2018-12-30T11:31:34.071Z,94.02
2018-12-30T11:32:34.059Z,94.02
2018-12-30T11:33:34.023Z,93.91
2018-12-30T11:34:34.015Z,94.12
2018-12-30T11:35:34.003Z,94.32
2018-12-30T11:36:33.992Z,94.43
2018-12-30T11:37:33.999Z,94.64
2018-12-30T11:38:34.000Z,94.53
2018-12-30T11:39:33.958Z,93.91
2018-12-30T11:40:33.955Z,93.91
2018-12-30T11:41:33.936Z,93.50
2018-12-30T11:42:33.923Z,93.91
2018-12-30T11:43:33.926Z,93.50
2018-12-30T11:44:33.931Z,93.71
2018-12-30T11:45:33.896Z,93.81
2018-12-30T11:46:33.879Z,93.91
2018-12-30T11:47:33.867Z,93.19
2018-12-30T11:48:33.871Z,92.78
2018-12-30T11:49:33.863Z,92.68
2018-12-30T11:50:33.880Z,92.99
2018-12-30T11:51:33.826Z,93.09
2018-12-30T11:52:33.818Z,92.68
2018-12-30T11:53:33.803Z,93.40
2018-12-30T11:54:33.795Z,92.78
2018-12-30T11:55:33.802Z,92.57
2018-12-30T11:56:33.787Z,92.68
2018-12-30T11:57:33.759Z,92.78
2018-12-30T11:58:33.751Z,92.88
2018-12-30T11:59:33.736Z,92.88
2018-12-30T12:00:33.722Z,92.88
2018-12-30T12:01:33.727Z,92.99
2018-12-30T12:02:33.770Z,92.99
2018-12-30T12:03:33.691Z,93.40
2018-12-30T12:04:33.691Z,92.33
2018-12-30T12:05:33.667Z,92.37
2018-12-30T12:06:34.911Z,92.16
2018-12-30T12:07:33.650Z,92.57
2018-12-30T12:08:33.653Z,92.63
2018-12-30T12:09:33.638Z,92.43
2018-12-30T12:10:33.610Z,92.37
2018-12-30T12:11:33.619Z,92.27
2018-12-30T12:12:33.591Z,92.63
2018-12-30T12:13:33.578Z,92.74
2018-12-30T12:14:33.584Z,91.91
2018-12-30T12:15:33.586Z,92.63
2018-12-30T12:16:33.571Z,92.12
2018-12-30T12:17:33.535Z,92.43
2018-12-30T12:18:33.522Z,92.43
2018-12-30T12:19:33.519Z,92.02
2018-12-30T12:20:33.507Z,91.91
2018-12-30T12:21:33.511Z,92.02
2018-12-30T12:22:33.495Z,92.22
2018-12-30T12:23:33.487Z,92.53
2018-12-30T12:24:33.460Z,92.74
2018-12-30T12:25:33.447Z,92.33
2018-12-30T12:26:33.435Z,92.02
2018-12-30T12:27:33.422Z,92.53
2018-12-30T12:28:33.443Z,92.22
2018-12-30T12:29:33.415Z,92.33
2018-12-30T12:30:33.391Z,92.02
2018-12-30T12:31:33.382Z,91.50
2018-12-30T12:32:33.367Z,91.81
2018-12-30T12:33:33.358Z,90.99
2018-12-30T12:34:33.390Z,91.40
2018-12-30T12:35:33.355Z,90.99
2018-12-30T12:36:33.322Z,91.40
2018-12-30T12:37:33.312Z,91.50
2018-12-30T12:38:33.310Z,91.30
2018-12-30T12:39:33.295Z,91.60
2018-12-30T12:40:33.302Z,91.30
2018-12-30T12:41:33.280Z,91.30
2018-12-30T12:42:33.255Z,90.94
2018-12-30T12:43:33.249Z,91.46
2018-12-30T12:44:33.240Z,91.71
2018-12-30T12:45:33.239Z,91.71
2018-12-30T12:46:33.261Z,92.29
2018-12-30T12:47:33.203Z,91.30
2018-12-30T12:48:33.194Z,91.46
2018-12-30T12:49:33.187Z,90.94
2018-12-30T12:50:33.168Z,90.88
2018-12-30T12:51:33.171Z,90.73
2018-12-30T12:52:33.190Z,90.33